Time;durP1;ratioP1;P1;durP2;ratioP2;P2;SDS_P1;SDS_P2;PMS_P1;PMS_P2;Temp;Humidity;BMP_temperature;BMP_pressure;BME280_temperature;BME280_humidity;BME280_pressure;Samples;Min_cycle;Max_cycle;Signal;HPM_P1;HPM_P2
2020/12/12 00:00:11;;;;;;;12.77;10.30;;;5.60;99.90;;;;;;5013808;28;20389;-74
2020/12/12 00:02:37;;;;;;;11.80;9.90;;;5.60;99.90;;;;;;5014723;28;20172;-73
2020/12/12 00:05:03;;;;;;;10.53;9.00;;;5.60;99.90;;;;;;5014257;28;20210;-73
2020/12/12 00:07:28;;;;;;;16.07;11.97;;;5.50;99.90;;;;;;5014561;28;20187;-72
2020/12/12 00:09:54;;;;;;;11.50;9.67;;;5.50;99.90;;;;;;5014852;28;20225;-73
2020/12/12 00:12:19;;;;;;;11.77;10.30;;;5.50;99.90;;;;;;5014516;28;20199;-73
2020/12/12 00:14:45;;;;;;;14.73;10.60;;;5.50;99.90;;;;;;5014994;28;20260;-73
2020/12/12 00:17:11;;;;;;;12.00;10.40;;;5.50;99.90;;;;;;5013926;28;20191;-73
2020/12/12 00:19:36;;;;;;;17.50;10.50;;;5.60;99.90;;;;;;5013997;28;20202;-73
2020/12/12 00:22:02;;;;;;;13.20;10.13;;;5.60;99.90;;;;;;5013866;28;20638;-73
2020/12/12 00:24:27;;;;;;;10.80;9.10;;;5.60;99.90;;;;;;5006326;28;20203;-73
2020/12/12 00:26:57;;;;;;;11.73;9.80;;;5.60;99.90;;;;;;5012704;28;20174;-72
2020/12/12 00:29:23;;;;;;;12.03;9.80;;;5.60;99.90;;;;;;5013826;28;20203;-73
2020/12/12 00:31:55;;;;;;;17.00;12.20;;;5.70;99.90;;;;;;5014224;28;20452;-73
2020/12/12 00:34:21;;;;;;;12.13;9.97;;;5.70;99.90;;;;;;5013515;28;20428;-73
2020/12/12 00:36:46;;;;;;;13.00;10.37;;;5.70;99.90;;;;;;5013625;28;20414;-73
2020/12/12 00:39:12;;;;;;;13.20;10.50;;;5.70;99.90;;;;;;5012752;28;20457;-73
2020/12/12 00:41:39;;;;;;;11.87;9.77;;;5.80;99.90;;;;;;5017593;28;20211;-73
2020/12/12 00:44:05;;;;;;;12.77;11.37;;;5.80;99.90;;;;;;5017689;28;20183;-73
2020/12/12 00:46:31;;;;;;;12.60;10.47;;;5.90;99.90;;;;;;5016555;28;20794;-73
2020/12/12 00:48:57;;;;;;;12.23;10.67;;;5.90;99.90;;;;;;5015310;28;20491;-71
2020/12/12 00:51:23;;;;;;;13.63;10.93;;;5.80;99.90;;;;;;5019228;28;20445;-73
2020/12/12 00:53:49;;;;;;;12.07;10.60;;;5.80;99.90;;;;;;5019224;28;20453;-73
2020/12/12 00:56:15;;;;;;;14.47;11.47;;;5.80;99.90;;;;;;5022263;28;20192;-73
2020/12/12 00:58:41;;;;;;;14.73;11.83;;;5.80;99.90;;;;;;5020824;28;20435;-74
2020/12/12 01:01:07;;;;;;;13.80;10.87;;;5.80;99.90;;;;;;5019674;28;20484;-73
2020/12/12 01:03:33;;;;;;;13.80;10.30;;;5.80;99.90;;;;;;5018057;28;20909;-73
2020/12/12 01:05:58;;;;;;;14.30;11.50;;;5.70;99.90;;;;;;5014272;28;20692;-72
2020/12/12 01:08:24;;;;;;;13.60;10.40;;;5.70;99.90;;;;;;5012735;28;20184;-73
2020/12/12 01:10:51;;;;;;;11.53;10.20;;;5.70;99.90;;;;;;5013049;28;20262;-73
2020/12/12 01:13:17;;;;;;;12.33;10.40;;;5.70;99.90;;;;;;5013256;28;20285;-73
2020/12/12 01:15:43;;;;;;;12.63;10.20;;;5.70;99.90;;;;;;5012945;28;20419;-73
2020/12/12 01:18:08;;;;;;;14.60;10.83;;;5.70;99.90;;;;;;5012595;28;20226;-73
2020/12/12 01:20:34;;;;;;;12.57;9.97;;;5.80;99.90;;;;;;5012642;28;20297;-73
2020/12/12 01:22:59;;;;;;;12.77;10.43;;;5.70;99.90;;;;;;5012839;28;20176;-74
2020/12/12 01:25:25;;;;;;;12.60;10.73;;;5.80;99.90;;;;;;5012878;28;20187;-73
2020/12/12 01:27:51;;;;;;;13.07;11.03;;;5.80;99.90;;;;;;5012808;28;20179;-71
2020/12/12 01:30:16;;;;;;;12.50;10.43;;;5.90;99.90;;;;;;5012968;28;20304;-73
2020/12/12 01:32:42;;;;;;;12.40;10.33;;;5.90;99.90;;;;;;5011566;28;20437;-73
2020/12/12 01:35:07;;;;;;;11.93;10.17;;;5.90;99.90;;;;;;5012560;28;20594;-71
2020/12/12 01:37:33;;;;;;;12.70;11.00;;;5.90;99.90;;;;;;5012700;28;20262;-73
2020/12/12 01:39:58;;;;;;;12.20;9.93;;;5.90;99.90;;;;;;5012652;28;20217;-73
2020/12/12 01:42:24;;;;;;;15.50;10.73;;;5.90;99.90;;;;;;5012746;28;20213;-71
2020/12/12 01:44:55;;;;;;;11.70;9.90;;;5.90;99.90;;;;;;5012682;28;20946;-73
2020/12/12 01:47:21;;;;;;;13.80;11.03;;;5.90;99.90;;;;;;5012431;28;20188;-73
2020/12/12 01:49:50;;;;;;;12.70;10.50;;;5.80;99.90;;;;;;5012317;28;20446;-73
2020/12/12 01:52:15;;;;;;;12.97;10.77;;;5.80;99.90;;;;;;5012482;28;20518;-73
2020/12/12 01:54:45;;;;;;;12.43;10.47;;;5.90;99.90;;;;;;5012134;28;20438;-73
2020/12/12 01:57:13;;;;;;;12.43;9.70;;;5.90;99.90;;;;;;5012538;28;20175;-73
2020/12/12 01:59:38;;;;;;;13.17;10.60;;;5.90;99.90;;;;;;5012628;28;20553;-73
2020/12/12 02:02:07;;;;;;;13.70;10.90;;;5.90;99.90;;;;;;5012267;28;20893;-73
2020/12/12 02:04:35;;;;;;;15.03;10.73;;;6.00;99.90;;;;;;5012493;28;20180;-73
2020/12/12 02:07:00;;;;;;;11.77;10.30;;;5.90;99.90;;;;;;5015993;28;20430;-73
2020/12/12 02:09:26;;;;;;;13.30;10.50;;;6.00;99.90;;;;;;5015986;28;20472;-73
2020/12/12 02:11:52;;;;;;;12.40;10.47;;;6.00;99.90;;;;;;5016230;28;20218;-71
2020/12/12 02:14:18;;;;;;;11.97;10.13;;;6.10;99.90;;;;;;5016191;28;20509;-71
2020/12/12 02:16:51;;;;;;;15.07;10.37;;;6.00;99.90;;;;;;5016008;28;20600;-71
2020/12/12 02:19:17;;;;;;;12.37;9.87;;;6.00;99.90;;;;;;5015579;28;20200;-71
2020/12/12 02:21:42;;;;;;;12.63;10.30;;;6.00;99.90;;;;;;5015731;28;20445;-71
2020/12/12 02:24:08;;;;;;;12.73;10.00;;;6.00;99.90;;;;;;5015746;28;20591;-71
2020/12/12 02:26:33;;;;;;;13.23;10.43;;;6.10;99.90;;;;;;5016275;28;20186;-71
2020/12/12 02:28:59;;;;;;;13.33;10.33;;;6.10;99.90;;;;;;5015304;28;20242;-71
2020/12/12 02:31:25;;;;;;;11.60;9.97;;;6.00;99.90;;;;;;5015842;28;20237;-71
2020/12/12 02:33:51;;;;;;;11.83;10.63;;;6.00;99.90;;;;;;5015535;28;20548;-72
2020/12/12 02:36:16;;;;;;;14.13;11.50;;;5.90;99.90;;;;;;5015568;28;20425;-72
2020/12/12 02:38:43;;;;;;;15.77;11.23;;;5.90;99.90;;;;;;5015206;28;20203;-72
2020/12/12 02:41:09;;;;;;;14.43;11.83;;;6.00;99.90;;;;;;5015281;28;20216;-72
2020/12/12 02:43:35;;;;;;;13.37;11.37;;;6.00;99.90;;;;;;5015121;28;20429;-72
2020/12/12 02:46:00;;;;;;;13.40;11.00;;;5.90;99.90;;;;;;5015832;28;20513;-72
2020/12/12 02:48:26;;;;;;;14.17;11.33;;;5.90;99.90;;;;;;5015237;28;20439;-72
2020/12/12 02:50:51;;;;;;;14.97;11.10;;;6.00;99.90;;;;;;5015319;28;20214;-72
2020/12/12 02:53:17;;;;;;;13.20;9.97;;;6.00;99.90;;;;;;5014903;28;20180;-72
2020/12/12 02:55:42;;;;;;;13.73;10.30;;;6.00;99.90;;;;;;5015603;28;20179;-72
2020/12/12 02:58:08;;;;;;;14.10;10.77;;;6.00;99.90;;;;;;5014777;28;20195;-73
2020/12/12 03:00:34;;;;;;;15.10;11.40;;;6.00;99.90;;;;;;5014988;28;20207;-73
2020/12/12 03:02:59;;;;;;;14.03;11.17;;;6.10;99.90;;;;;;5015022;28;20183;-72
2020/12/12 03:05:25;;;;;;;15.03;11.03;;;6.00;99.90;;;;;;5015006;28;20180;-72
2020/12/12 03:07:50;;;;;;;15.40;11.10;;;6.00;99.90;;;;;;5014720;28;20538;-72
2020/12/12 03:10:16;;;;;;;14.30;10.80;;;6.00;99.90;;;;;;5014742;28;20220;-72
2020/12/12 03:12:41;;;;;;;11.10;9.57;;;6.10;99.90;;;;;;5013527;28;20270;-72
2020/12/12 03:15:09;;;;;;;14.47;11.70;;;6.00;99.90;;;;;;5014587;28;20198;-72
2020/12/12 03:17:35;;;;;;;14.67;11.83;;;6.00;99.90;;;;;;5013977;28;20186;-72
2020/12/12 03:20:01;;;;;;;14.20;11.10;;;6.00;99.90;;;;;;5016581;28;20565;-72
2020/12/12 03:22:26;;;;;;;14.03;10.37;;;6.00;99.90;;;;;;5015399;28;20284;-72
2020/12/12 03:24:52;;;;;;;12.30;9.97;;;6.00;99.90;;;;;;5014752;28;20179;-72
2020/12/12 03:27:17;;;;;;;11.70;10.40;;;6.00;99.90;;;;;;5014369;28;20180;-73
2020/12/12 03:29:43;;;;;;;12.57;10.83;;;6.00;99.90;;;;;;5014654;28;20562;-72
2020/12/12 03:32:10;;;;;;;13.70;10.43;;;6.00;99.90;;;;;;5014493;28;20214;-71
2020/12/12 03:34:37;;;;;;;14.03;10.60;;;6.00;99.90;;;;;;5006640;28;20612;-72
2020/12/12 03:37:03;;;;;;;13.80;10.17;;;6.10;99.90;;;;;;5014077;28;20436;-71
2020/12/12 03:39:29;;;;;;;14.20;11.03;;;6.10;99.90;;;;;;5014218;28;20462;-72
2020/12/12 03:41:55;;;;;;;15.53;11.80;;;6.10;99.90;;;;;;5015194;28;20466;-72
2020/12/12 03:44:20;;;;;;;14.13;11.57;;;6.10;99.90;;;;;;5015070;28;20423;-72
2020/12/12 03:46:46;;;;;;;15.80;11.43;;;6.20;99.90;;;;;;5014616;28;20875;-72
2020/12/12 03:49:12;;;;;;;14.37;11.27;;;6.20;99.90;;;;;;5014217;28;20536;-71
2020/12/12 03:51:37;;;;;;;13.33;11.00;;;6.20;99.90;;;;;;5012759;28;20306;-71
2020/12/12 03:54:03;;;;;;;17.23;11.80;;;6.20;99.90;;;;;;5014250;28;20528;-71
2020/12/12 03:56:28;;;;;;;14.00;11.20;;;6.10;99.90;;;;;;5014303;28;20548;-71
2020/12/12 03:58:54;;;;;;;12.43;10.77;;;6.10;99.90;;;;;;5013878;28;20202;-71
2020/12/12 04:01:20;;;;;;;16.63;11.17;;;6.10;99.90;;;;;;5013868;28;20634;-72
2020/12/12 04:03:45;;;;;;;14.00;10.77;;;6.10;99.90;;;;;;5014117;28;20188;-72
2020/12/12 04:06:11;;;;;;;15.10;11.43;;;6.10;99.90;;;;;;5014363;28;20595;-72
2020/12/12 04:08:36;;;;;;;12.50;10.07;;;6.10;99.90;;;;;;5013689;28;20199;-72
2020/12/12 04:11:02;;;;;;;15.47;11.40;;;6.20;99.90;;;;;;5013914;28;20191;-72
2020/12/12 04:13:28;;;;;;;15.57;11.37;;;6.20;99.90;;;;;;5014362;28;20211;-72
2020/12/12 04:15:54;;;;;;;13.70;11.13;;;6.20;99.90;;;;;;5014553;28;20426;-72
2020/12/12 04:18:20;;;;;;;13.83;10.30;;;6.20;99.90;;;;;;5014079;28;20496;-72
2020/12/12 04:20:46;;;;;;;13.60;11.20;;;6.20;99.90;;;;;;5014856;28;20494;-72
2020/12/12 04:23:11;;;;;;;13.67;11.90;;;6.20;99.90;;;;;;5015667;28;20274;-72
2020/12/12 04:25:37;;;;;;;15.57;11.23;;;6.20;99.90;;;;;;5013532;28;20214;-72
2020/12/12 04:28:03;;;;;;;13.27;10.33;;;6.20;99.90;;;;;;5014916;28;20422;-72
2020/12/12 04:30:28;;;;;;;14.47;10.83;;;6.20;99.90;;;;;;5015207;28;20226;-72
2020/12/12 04:32:54;;;;;;;17.37;11.37;;;6.30;99.90;;;;;;5006988;28;20564;-73
2020/12/12 04:35:19;;;;;;;12.97;10.83;;;6.20;99.90;;;;;;5015593;28;20180;-73
2020/12/12 04:37:45;;;;;;;14.33;10.67;;;6.20;99.90;;;;;;5012086;28;20175;-73
2020/12/12 04:40:10;;;;;;;16.23;11.67;;;6.20;99.90;;;;;;5013322;28;20249;-73
2020/12/12 04:42:37;;;;;;;14.60;11.70;;;6.30;99.90;;;;;;5013583;28;20198;-73
2020/12/12 04:45:04;;;;;;;14.30;10.77;;;6.30;99.90;;;;;;5013732;28;20464;-73
2020/12/12 04:47:31;;;;;;;13.97;10.87;;;6.30;99.90;;;;;;5013228;28;20803;-72
2020/12/12 04:49:58;;;;;;;15.07;11.00;;;6.30;99.90;;;;;;5013601;28;20525;-72
2020/12/12 04:52:24;;;;;;;13.30;10.73;;;6.30;99.90;;;;;;5013504;28;20608;-72
2020/12/12 04:54:51;;;;;;;15.73;11.50;;;6.30;99.90;;;;;;5013486;28;20430;-72
2020/12/12 04:57:17;;;;;;;15.50;11.90;;;6.40;99.90;;;;;;5013294;28;20458;-72
2020/12/12 04:59:44;;;;;;;14.87;12.20;;;6.30;99.90;;;;;;5013164;28;20515;-72
2020/12/12 05:02:13;;;;;;;16.07;12.30;;;6.30;99.90;;;;;;5013668;28;20718;-73
2020/12/12 05:04:41;;;;;;;16.10;12.73;;;6.20;99.90;;;;;;5013401;28;20427;-73
2020/12/12 05:07:10;;;;;;;13.03;10.30;;;6.20;99.90;;;;;;5005669;28;20429;-71
2020/12/12 05:09:36;;;;;;;16.80;12.73;;;6.10;99.90;;;;;;5013284;28;20446;-71
2020/12/12 05:12:02;;;;;;;14.30;11.53;;;6.10;99.90;;;;;;5013010;28;20452;-72
2020/12/12 05:14:27;;;;;;;15.87;11.63;;;6.10;99.90;;;;;;5013207;28;20711;-71
2020/12/12 05:16:57;;;;;;;12.50;10.23;;;6.20;99.90;;;;;;5013230;28;20433;-72
2020/12/12 05:19:23;;;;;;;17.70;12.77;;;6.30;99.90;;;;;;5012961;28;20195;-74
2020/12/12 05:21:50;;;;;;;17.57;12.63;;;6.30;99.90;;;;;;5012745;28;20414;-73
2020/12/12 05:24:16;;;;;;;16.33;11.90;;;6.30;99.90;;;;;;5012800;28;20422;-73
2020/12/12 05:26:43;;;;;;;17.77;13.17;;;6.30;99.90;;;;;;5013232;28;20506;-72
2020/12/12 05:29:11;;;;;;;15.37;12.70;;;6.30;99.90;;;;;;5012602;28;20293;-72
2020/12/12 05:31:37;;;;;;;16.53;12.50;;;6.30;99.90;;;;;;5013288;28;20410;-71
2020/12/12 05:34:14;;;;;;;15.93;12.70;;;6.30;99.90;;;;;;5012756;28;20517;-73
2020/12/12 05:36:41;;;;;;;16.07;11.97;;;6.30;99.90;;;;;;5012839;28;20442;-73
2020/12/12 05:39:12;;;;;;;15.93;11.50;;;6.30;99.90;;;;;;5012264;28;20453;-72
2020/12/12 05:41:39;;;;;;;17.40;12.83;;;6.30;99.90;;;;;;5016722;28;20422;-72
2020/12/12 05:44:05;;;;;;;13.67;10.57;;;6.40;99.90;;;;;;5016732;28;20441;-73
2020/12/12 05:46:31;;;;;;;15.53;12.47;;;6.30;99.90;;;;;;5016738;28;20862;-73
2020/12/12 05:48:58;;;;;;;18.87;12.13;;;6.30;99.90;;;;;;5014734;28;20452;-73
2020/12/12 05:51:27;;;;;;;16.93;12.37;;;6.30;99.90;;;;;;5015086;28;20501;-73
2020/12/12 05:53:54;;;;;;;17.20;12.27;;;6.30;99.90;;;;;;5016119;28;20537;-71
2020/12/12 05:56:22;;;;;;;18.87;11.50;;;6.40;99.90;;;;;;5016543;28;20904;-72
2020/12/12 05:58:49;;;;;;;15.43;11.97;;;6.30;99.90;;;;;;5016086;28;20793;-72
2020/12/12 06:01:18;;;;;;;17.00;12.20;;;6.30;99.90;;;;;;5017998;28;20462;-72
2020/12/12 06:03:57;;;;;;;15.40;11.73;;;6.30;99.90;;;;;;5018210;28;20430;-72
2020/12/12 06:06:24;;;;;;;16.43;11.60;;;6.40;99.90;;;;;;5018297;28;20843;-73
2020/12/12 06:09:07;;;;;;;14.37;10.97;;;6.40;99.90;;;;;;5017634;28;20856;-72
2020/12/12 06:11:38;;;;;;;18.47;12.57;;;6.30;99.90;;;;;;5016589;28;20847;-72
2020/12/12 06:14:04;;;;;;;19.53;12.53;;;6.30;99.90;;;;;;5014910;28;20520;-72
2020/12/12 06:16:32;;;;;;;14.30;11.40;;;6.30;99.90;;;;;;5008425;28;20457;-72
2020/12/12 06:19:08;;;;;;;15.77;12.00;;;6.30;99.90;;;;;;5015777;28;20449;-72
2020/12/12 06:21:35;;;;;;;15.60;11.93;;;6.30;99.90;;;;;;5015456;28;20474;-72
2020/12/12 06:24:03;;;;;;;17.20;11.90;;;6.30;99.90;;;;;;5015764;28;20434;-72
2020/12/12 06:26:51;;;;;;;16.40;11.70;;;6.30;99.90;;;;;;5015727;28;20426;-72
2020/12/12 06:29:18;;;;;;;17.10;12.50;;;6.30;99.90;;;;;;5015431;28;20457;-73
2020/12/12 06:31:44;;;;;;;14.87;11.23;;;6.30;99.90;;;;;;5014636;28;20426;-72
2020/12/12 06:34:10;;;;;;;17.37;11.73;;;6.30;99.90;;;;;;5015848;28;20477;-72
2020/12/12 06:36:36;;;;;;;16.67;11.80;;;6.30;99.90;;;;;;5015486;28;20521;-73
2020/12/12 06:39:21;;;;;;;14.20;11.37;;;6.40;99.90;;;;;;5015298;28;20202;-73
2020/12/12 06:41:50;;;;;;;16.67;12.50;;;6.30;99.90;;;;;;5009504;28;20457;-74
2020/12/12 06:44:42;;;;;;;13.40;11.20;;;6.40;99.90;;;;;;5014744;28;20506;-73
2020/12/12 06:47:08;;;;;;;12.67;10.10;;;6.30;99.90;;;;;;5013665;28;20434;-73
2020/12/12 06:49:35;;;;;;;11.63;10.00;;;6.30;99.90;;;;;;5015099;28;20505;-72
2020/12/12 06:52:01;;;;;;;16.17;11.40;;;6.30;99.90;;;;;;5014455;28;20431;-74
2020/12/12 06:54:27;;;;;;;12.33;10.40;;;6.30;99.90;;;;;;5015257;28;20448;-73
2020/12/12 06:56:53;;;;;;;13.17;10.63;;;6.30;99.90;;;;;;5014753;28;20544;-73
2020/12/12 06:59:25;;;;;;;15.80;10.90;;;6.30;99.90;;;;;;5011255;28;20200;-73
2020/12/12 07:01:52;;;;;;;14.30;11.33;;;6.40;99.90;;;;;;5006469;28;20164;-73
2020/12/12 07:04:31;;;;;;;13.63;10.13;;;6.40;99.90;;;;;;5012799;28;20533;-73
2020/12/12 07:07:11;;;;;;;12.83;10.60;;;6.50;99.90;;;;;;5014052;28;20477;-73
2020/12/12 07:09:41;;;;;;;15.63;11.73;;;6.40;99.90;;;;;;5014947;28;20442;-72
2020/12/12 07:12:07;;;;;;;13.17;10.30;;;6.50;99.90;;;;;;5014808;28;20828;-73
2020/12/12 07:14:35;;;;;;;12.97;10.73;;;6.50;99.90;;;;;;5015694;28;20450;-73
2020/12/12 07:17:02;;;;;;;11.30;9.37;;;6.50;99.90;;;;;;5015176;28;20479;-72
2020/12/12 07:19:31;;;;;;;11.50;8.73;;;6.50;99.90;;;;;;5014625;28;20458;-72
2020/12/12 07:21:58;;;;;;;11.47;9.80;;;6.50;99.90;;;;;;5014977;28;20422;-73
2020/12/12 07:24:24;;;;;;;12.90;10.73;;;6.50;99.90;;;;;;5013253;28;20584;-73
2020/12/12 07:26:51;;;;;;;13.77;11.03;;;6.40;99.90;;;;;;5007204;28;20501;-73
2020/12/12 07:29:17;;;;;;;13.37;10.77;;;6.40;99.90;;;;;;5014983;28;20438;-73
2020/12/12 07:31:44;;;;;;;15.10;11.03;;;6.50;99.90;;;;;;5012195;28;20429;-71
2020/12/12 07:34:09;;;;;;;12.70;10.47;;;6.50;99.90;;;;;;5000996;28;20322;-73
2020/12/12 07:36:35;;;;;;;14.30;10.57;;;6.50;99.90;;;;;;4993754;28;20918;-72
2020/12/12 07:39:07;;;;;;;13.63;10.90;;;6.60;99.90;;;;;;5005791;28;20207;-73
2020/12/12 07:41:39;;;;;;;16.70;11.50;;;6.50;99.90;;;;;;5006935;28;20657;-71
2020/12/12 07:44:06;;;;;;;12.90;9.93;;;6.50;99.90;;;;;;5014314;28;20418;-74
2020/12/12 07:46:41;;;;;;;12.03;9.93;;;6.50;99.90;;;;;;5014289;28;20441;-74
2020/12/12 07:49:08;;;;;;;12.07;10.77;;;6.50;99.90;;;;;;5014985;28;20471;-73
2020/12/12 07:51:34;;;;;;;15.27;12.50;;;6.50;99.90;;;;;;5015978;28;20473;-73
2020/12/12 07:54:11;;;;;;;13.87;10.83;;;6.60;99.90;;;;;;5016861;28;20417;-74
2020/12/12 07:56:36;;;;;;;13.87;10.77;;;6.60;99.90;;;;;;5019092;28;20824;-74
2020/12/12 07:59:07;;;;;;;13.03;11.50;;;6.60;99.90;;;;;;5015558;28;20454;-74
2020/12/12 08:01:33;;;;;;;13.77;11.37;;;6.70;99.90;;;;;;5015988;28;20238;-74
2020/12/12 08:03:58;;;;;;;15.30;11.13;;;6.60;99.90;;;;;;5016142;28;20415;-74
2020/12/12 08:06:27;;;;;;;13.63;11.93;;;6.60;99.90;;;;;;5017887;28;20187;-73
2020/12/12 08:08:56;;;;;;;14.70;11.97;;;6.70;99.90;;;;;;5014212;28;20203;-74
2020/12/12 08:11:22;;;;;;;13.77;10.90;;;6.70;99.90;;;;;;5014314;28;20426;-73
2020/12/12 08:13:48;;;;;;;12.13;10.07;;;6.70;99.90;;;;;;5012389;28;20415;-73
2020/12/12 08:16:26;;;;;;;12.63;11.20;;;6.70;99.90;;;;;;5004695;28;20957;-72
2020/12/12 08:19:02;;;;;;;12.93;10.37;;;6.70;99.90;;;;;;5012842;28;20460;-72
2020/12/12 08:21:28;;;;;;;12.60;11.30;;;6.80;99.90;;;;;;5014169;28;20471;-73
2020/12/12 08:23:54;;;;;;;15.03;10.47;;;6.80;99.90;;;;;;5014299;28;20910;-73
2020/12/12 08:26:22;;;;;;;14.23;10.93;;;6.80;99.90;;;;;;5007399;28;20180;-73
2020/12/12 08:28:48;;;;;;;13.70;10.40;;;6.70;99.90;;;;;;5013895;28;20712;-73
2020/12/12 08:31:19;;;;;;;15.43;10.67;;;6.80;99.90;;;;;;5012817;28;20986;-73
2020/12/12 08:33:52;;;;;;;11.83;9.90;;;6.80;99.90;;;;;;5013553;28;20454;-74
2020/12/12 08:36:20;;;;;;;13.37;10.83;;;6.70;99.90;;;;;;5007572;28;20493;-73
2020/12/12 08:39:00;;;;;;;13.60;10.00;;;6.80;99.90;;;;;;5013465;28;20437;-72
2020/12/12 08:41:40;;;;;;;13.40;10.87;;;6.80;99.90;;;;;;5013734;28;20460;-73
2020/12/12 08:44:07;;;;;;;11.90;9.57;;;6.80;99.90;;;;;;5013655;28;20441;-73
2020/12/12 08:46:33;;;;;;;14.63;10.87;;;6.80;99.90;;;;;;5013553;28;20521;-73
2020/12/12 08:48:58;;;;;;;18.03;10.20;;;6.80;99.90;;;;;;5012969;28;20438;-73
2020/12/12 08:51:29;;;;;;;13.13;10.37;;;6.80;99.90;;;;;;5013814;28;20415;-73
2020/12/12 08:53:57;;;;;;;9.87;8.70;;;6.90;99.90;;;;;;5013222;28;20302;-73
2020/12/12 08:56:29;;;;;;;9.40;8.13;;;6.80;99.90;;;;;;5011034;28;20454;-72
2020/12/12 08:59:00;;;;;;;13.00;9.67;;;6.90;99.90;;;;;;5010953;28;20442;-74
2020/12/12 09:01:28;;;;;;;11.50;9.17;;;6.90;99.90;;;;;;5003777;28;20552;-73
2020/12/12 09:04:00;;;;;;;9.80;8.80;;;6.90;99.90;;;;;;5011003;28;20758;-74
2020/12/12 09:06:28;;;;;;;9.67;8.67;;;6.90;99.90;;;;;;5003822;28;20826;-73
2020/12/12 09:09:18;;;;;;;11.80;9.53;;;7.00;99.90;;;;;;5011513;28;20447;-73
2020/12/12 09:11:52;;;;;;;8.90;8.00;;;7.10;99.90;;;;;;5012420;28;20423;-72
2020/12/12 09:14:18;;;;;;;8.57;7.13;;;7.10;99.90;;;;;;5013307;28;20518;-73
2020/12/12 09:16:52;;;;;;;7.60;6.50;;;7.30;99.90;;;;;;5013969;28;20427;-73
2020/12/12 09:19:18;;;;;;;7.73;7.03;;;7.40;99.90;;;;;;5014377;28;20218;-74
2020/12/12 09:21:43;;;;;;;8.73;7.27;;;7.50;99.90;;;;;;5013668;28;20422;-74
2020/12/12 09:24:09;;;;;;;6.03;5.43;;;7.60;99.90;;;;;;5014003;28;20421;-73
2020/12/12 09:26:35;;;;;;;7.03;6.37;;;7.60;99.90;;;;;;5003457;28;20623;-72
2020/12/12 09:29:00;;;;;;;6.07;5.43;;;7.60;99.90;;;;;;5003269;28;20610;-72
2020/12/12 09:31:27;;;;;;;5.60;5.10;;;7.60;99.90;;;;;;5011018;28;20206;-75
2020/12/12 09:33:52;;;;;;;5.70;5.20;;;7.70;99.90;;;;;;5012127;28;20189;-74
2020/12/12 09:36:18;;;;;;;5.17;4.77;;;7.70;99.90;;;;;;5012816;28;20452;-74
2020/12/12 09:38:43;;;;;;;5.83;5.30;;;7.80;99.90;;;;;;5010394;28;20203;-73
2020/12/12 09:41:09;;;;;;;5.83;5.30;;;7.80;99.90;;;;;;5012085;28;20199;-73
2020/12/12 09:43:35;;;;;;;5.60;5.10;;;7.80;99.90;;;;;;5012155;28;20172;-73
2020/12/12 09:46:01;;;;;;;5.27;4.80;;;7.80;99.90;;;;;;5012378;28;20476;-75
2020/12/12 09:48:27;;;;;;;5.13;4.73;;;7.80;99.90;;;;;;5005580;28;20472;-73
2020/12/12 09:50:52;;;;;;;6.87;5.60;;;7.80;99.90;;;;;;5012789;28;20197;-74
2020/12/12 09:53:18;;;;;;;6.33;5.17;;;7.90;99.90;;;;;;5010866;28;20198;-73
2020/12/12 09:55:45;;;;;;;6.20;5.60;;;7.90;99.90;;;;;;5010851;28;20186;-73
2020/12/12 09:58:11;;;;;;;5.40;4.90;;;7.90;99.90;;;;;;5010590;28;20184;-73
2020/12/12 10:00:38;;;;;;;6.60;5.40;;;7.90;99.90;;;;;;5010407;28;20458;-73
2020/12/12 10:03:05;;;;;;;6.23;5.60;;;7.80;99.90;;;;;;5010451;28;20291;-74
2020/12/12 10:05:32;;;;;;;6.57;5.97;;;7.70;99.90;;;;;;5010585;28;20509;-73
2020/12/12 10:07:58;;;;;;;6.00;5.43;;;7.70;99.90;;;;;;5012314;28;20418;-73
2020/12/12 10:10:25;;;;;;;6.40;5.80;;;7.70;99.90;;;;;;5013021;28;20617;-73
2020/12/12 10:12:51;;;;;;;5.97;5.37;;;7.80;99.90;;;;;;5011684;28;20422;-73
2020/12/12 10:15:18;;;;;;;6.83;6.23;;;7.60;99.90;;;;;;5012673;28;20448;-72
2020/12/12 10:17:45;;;;;;;6.90;6.20;;;7.60;99.90;;;;;;5012753;28;20423;-72
2020/12/12 10:20:10;;;;;;;8.97;6.83;;;7.70;99.90;;;;;;5012594;28;20490;-75
2020/12/12 10:22:36;;;;;;;6.90;6.20;;;7.60;99.90;;;;;;5012710;28;20414;-74
2020/12/12 10:25:02;;;;;;;7.60;6.50;;;7.60;99.90;;;;;;5012885;28;20179;-74
2020/12/12 10:27:28;;;;;;;8.13;6.90;;;7.60;99.90;;;;;;5015464;28;20191;-73
2020/12/12 10:29:53;;;;;;;7.17;6.50;;;7.60;99.90;;;;;;5014826;28;20467;-72
2020/12/12 10:32:19;;;;;;;7.57;6.60;;;7.60;99.90;;;;;;5016514;28;20179;-73
2020/12/12 10:34:44;;;;;;;7.57;6.70;;;7.60;99.90;;;;;;5016199;28;20735;-73
2020/12/12 10:37:10;;;;;;;6.77;6.00;;;7.70;99.90;;;;;;5016137;28;20188;-73
2020/12/12 10:39:41;;;;;;;7.73;6.80;;;7.70;99.90;;;;;;5015601;28;20660;-74
2020/12/12 10:42:06;;;;;;;7.50;6.80;;;7.70;99.90;;;;;;5016072;28;20606;-72
2020/12/12 10:44:32;;;;;;;8.53;7.27;;;7.60;99.90;;;;;;5016018;28;20506;-71
2020/12/12 10:46:58;;;;;;;8.80;7.40;;;7.60;99.90;;;;;;5014369;28;20191;-75
2020/12/12 10:49:24;;;;;;;7.30;6.60;;;7.60;99.90;;;;;;5015752;28;20283;-74
2020/12/12 10:51:53;;;;;;;8.27;7.47;;;7.70;99.90;;;;;;5015968;28;20841;-74
2020/12/12 10:54:20;;;;;;;7.17;6.30;;;7.70;99.90;;;;;;5016009;28;20633;-73
2020/12/12 10:56:46;;;;;;;8.03;6.60;;;7.70;99.90;;;;;;5015678;28;20407;-73
2020/12/12 10:59:12;;;;;;;9.53;7.20;;;7.80;99.90;;;;;;5013816;28;20458;-73
2020/12/12 11:01:37;;;;;;;8.77;6.97;;;7.80;99.90;;;;;;5014329;28;20463;-73
2020/12/12 11:04:04;;;;;;;8.50;7.40;;;7.80;99.90;;;;;;5015087;28;20454;-73
2020/12/12 11:06:29;;;;;;;10.67;7.30;;;7.90;99.90;;;;;;5014320;28;20588;-73
2020/12/12 11:08:55;;;;;;;7.67;6.87;;;7.90;99.90;;;;;;5014809;28;20443;-73
2020/12/12 11:11:21;;;;;;;8.73;7.10;;;7.90;99.90;;;;;;5015491;28;20176;-74
2020/12/12 11:13:46;;;;;;;8.03;7.30;;;8.00;99.90;;;;;;5015166;28;20257;-73
2020/12/12 11:16:17;;;;;;;7.47;6.27;;;8.00;99.90;;;;;;5015905;28;20180;-73
2020/12/12 11:18:43;;;;;;;7.70;6.93;;;8.00;99.90;;;;;;5015309;28;20249;-73
2020/12/12 11:21:08;;;;;;;9.73;6.80;;;8.00;99.90;;;;;;5015689;28;20495;-73
2020/12/12 11:23:34;;;;;;;6.60;6.00;;;8.10;99.90;;;;;;5016493;28;20172;-73
2020/12/12 11:26:00;;;;;;;10.47;8.87;;;8.10;99.90;;;;;;5019884;28;20176;-73
2020/12/12 11:28:25;;;;;;;7.83;7.03;;;8.10;99.90;;;;;;5027629;28;20168;-73
2020/12/12 11:30:51;;;;;;;8.80;7.33;;;8.20;99.90;;;;;;5028006;28;20201;-74
2020/12/12 11:33:16;;;;;;;7.67;6.40;;;8.30;99.90;;;;;;5021142;28;20646;-73
2020/12/12 11:35:55;;;;;;;8.03;7.07;;;8.30;99.90;;;;;;5025671;28;20178;-74
2020/12/12 11:38:30;;;;;;;7.03;6.27;;;8.30;99.90;;;;;;5028057;28;20344;-74
2020/12/12 11:41:06;;;;;;;7.27;6.53;;;8.30;99.90;;;;;;5025533;28;20966;-74
2020/12/12 11:43:52;;;;;;;7.20;6.37;;;8.40;99.90;;;;;;5016430;28;20443;-74
2020/12/12 11:48:47;;;;;;;7.90;6.60;;;8.30;99.90;;;;;;5015028;28;20453;-73
2020/12/12 11:51:13;;;;;;;7.93;7.13;;;8.30;99.90;;;;;;5014595;28;20494;-72
2020/12/12 11:53:39;;;;;;;6.90;6.20;;;8.40;99.90;;;;;;5014850;28;20423;-74
2020/12/12 11:56:04;;;;;;;7.00;6.40;;;8.40;99.90;;;;;;5014736;28;20252;-74
2020/12/12 11:58:30;;;;;;;7.33;6.33;;;8.40;99.90;;;;;;5014527;28;20278;-73
2020/12/12 12:00:55;;;;;;;6.10;5.50;;;8.40;99.90;;;;;;5014661;28;20592;-74
2020/12/12 12:03:21;;;;;;;7.47;6.60;;;8.40;99.90;;;;;;5014451;28;20176;-73
2020/12/12 12:05:48;;;;;;;6.20;5.60;;;8.40;99.90;;;;;;5014763;28;20171;-73
2020/12/12 12:08:43;;;;;;;7.40;6.70;;;8.30;99.90;;;;;;5012266;28;20256;-72
2020/12/12 12:13:44;;;;;;;6.97;6.23;;;8.30;99.90;;;;;;5014364;28;20440;-72
2020/12/12 12:16:16;;;;;;;7.03;6.33;;;8.30;99.90;;;;;;5013926;28;20426;-72
2020/12/12 12:18:41;;;;;;;8.07;6.77;;;8.30;99.90;;;;;;5014230;28;20541;-72
2020/12/12 12:21:07;;;;;;;7.40;6.70;;;8.30;99.90;;;;;;5014371;28;20508;-73
2020/12/12 12:23:34;;;;;;;8.07;7.27;;;8.30;99.90;;;;;;5014575;28;20190;-73
2020/12/12 12:25:59;;;;;;;7.53;6.80;;;8.30;99.90;;;;;;5014606;28;20251;-73
2020/12/12 12:28:25;;;;;;;6.70;6.00;;;8.30;99.90;;;;;;5013343;28;21004;-73
2020/12/12 12:30:51;;;;;;;7.20;6.30;;;8.40;99.90;;;;;;5013424;28;20266;-71
2020/12/12 12:33:16;;;;;;;8.90;7.30;;;8.40;99.90;;;;;;5013357;28;20369;-73
2020/12/12 12:35:44;;;;;;;7.37;6.20;;;8.50;99.90;;;;;;5003975;28;20187;-74
2020/12/12 12:38:10;;;;;;;6.90;6.20;;;8.60;99.90;;;;;;5002765;28;20205;-73
2020/12/12 12:40:36;;;;;;;8.70;7.37;;;8.60;99.90;;;;;;5011278;28;20955;-73
2020/12/12 12:43:01;;;;;;;8.37;7.50;;;8.60;99.90;;;;;;5012157;28;20494;-73
2020/12/12 12:45:27;;;;;;;9.37;7.60;;;8.60;99.90;;;;;;5011056;28;20450;-73
2020/12/12 12:47:52;;;;;;;8.83;7.40;;;8.60;99.90;;;;;;5013556;28;20646;-73